DLH1422 EDDH-EGLL
Flight info
| Callsign | DLH1422 |
|---|---|
| Flight time | N/A |
| Altitude | 38000 |
| Route | WSN5G/33 WSN N125 ITMIZ DCT ABNED L980 LOGAN |
| Aircraft | A320/M-SDE3FGHIRWY/LB1 |
Departure
| Time | 2026-05-07 20:57 |
|---|---|
| Airport | Hamburg Helmut Schmidt Airport (EDDH) |
Arrival
| Time | N/A |
|---|---|
| Airport | London Heathrow Airport (EGLL) |
| Time | Latitude | Longitude | Altitude | Speed | Heading |
|---|---|---|---|---|---|
| 2026-05-07 20:25 | 53.63206 | 10.00361 | 48 ft | 0 kts | 86° |
| 2026-05-07 20:48 | 53.63205 | 10.00333 | 49 ft | 3 kts | 86° |
| 2026-05-07 20:48 | 53.63204 | 10.00299 | 49 ft | 3 kts | 87° |
| 2026-05-07 20:48 | 53.63203 | 10.00265 | 49 ft | 3 kts | 90° |
| 2026-05-07 20:49 | 53.63203 | 10.00232 | 49 ft | 3 kts | 96° |
| 2026-05-07 20:49 | 53.63206 | 10.00204 | 49 ft | 2 kts | 117° |
| 2026-05-07 20:49 | 53.63211 | 10.00190 | 49 ft | 1 kts | 145° |
| 2026-05-07 20:49 | 53.63219 | 10.00182 | 47 ft | 1 kts | 166° |
| 2026-05-07 20:50 | 53.63227 | 10.00178 | 48 ft | 1 kts | 173° |
| 2026-05-07 20:50 | 53.63235 | 10.00177 | 46 ft | 1 kts | 176° |
| 2026-05-07 20:50 | 53.63243 | 10.00176 | 45 ft | 0 kts | 177° |
| 2026-05-07 20:53 | 53.63201 | 10.00180 | 48 ft | 10 kts | 176° |
| 2026-05-07 20:54 | 53.63137 | 10.00189 | 48 ft | 9 kts | 175° |
| 2026-05-07 20:54 | 53.63067 | 10.00179 | 45 ft | 13 kts | 202° |
| 2026-05-07 20:54 | 53.62993 | 10.00102 | 48 ft | 12 kts | 213° |
| 2026-05-07 20:54 | 53.62942 | 10.00044 | 47 ft | 6 kts | 217° |
| 2026-05-07 20:55 | 53.62919 | 9.99990 | 48 ft | 5 kts | 242° |
| 2026-05-07 20:55 | 53.62903 | 9.99940 | 46 ft | 5 kts | 243° |
| 2026-05-07 20:55 | 53.62883 | 9.99873 | 47 ft | 9 kts | 243° |
| 2026-05-07 20:55 | 53.62860 | 9.99782 | 44 ft | 6 kts | 256° |
| 2026-05-07 20:56 | 53.62879 | 9.99735 | 45 ft | 5 kts | 329° |
| 2026-05-07 20:56 | 53.63018 | 9.99614 | 45 ft | 57 kts | 334° |
| 2026-05-07 20:56 | 53.63583 | 9.99132 | 47 ft | 122 kts | 333° |
| 2026-05-07 20:56 | 53.64488 | 9.98347 | 99 ft | 166 kts | 333° |
| 2026-05-07 20:57 | 53.65491 | 9.97454 | 762 ft | 162 kts | 335° |
| 2026-05-07 20:57 | 53.66503 | 9.96590 | 1468 ft | 167 kts | 337° |
| 2026-05-07 20:57 | 53.67611 | 9.95659 | 1887 ft | 189 kts | 336° |
| 2026-05-07 20:57 | 53.68849 | 9.94616 | 2219 ft | 211 kts | 336° |
| 2026-05-07 20:58 | 53.70215 | 9.93427 | 2767 ft | 225 kts | 329° |
| 2026-05-07 20:58 | 53.71255 | 9.91465 | 3617 ft | 230 kts | 291° |
| 2026-05-07 20:58 | 53.71415 | 9.88731 | 4150 ft | 249 kts | 257° |
| 2026-05-07 20:58 | 53.70930 | 9.85802 | 4711 ft | 267 kts | 251° |
| 2026-05-07 20:59 | 53.70316 | 9.82792 | 4990 ft | 272 kts | 250° |
| 2026-05-07 20:59 | 53.69669 | 9.79764 | 5575 ft | 275 kts | 250° |
| 2026-05-07 20:59 | 53.69011 | 9.76673 | 6571 ft | 278 kts | 251° |
| 2026-05-07 20:59 | 53.68372 | 9.73609 | 7432 ft | 282 kts | 251° |
| 2026-05-07 21:00 | 53.67722 | 9.70417 | 8317 ft | 286 kts | 251° |
| 2026-05-07 21:00 | 53.67091 | 9.67266 | 9220 ft | 288 kts | 251° |
| 2026-05-07 21:00 | 53.66444 | 9.64002 | 10148 ft | 291 kts | 251° |
| 2026-05-07 21:00 | 53.65805 | 9.60761 | 10981 ft | 292 kts | 251° |
| 2026-05-07 21:01 | 53.65014 | 9.57511 | 11441 ft | 311 kts | 241° |
| 2026-05-07 21:01 | 53.63770 | 9.54381 | 11804 ft | 329 kts | 233° |
| 2026-05-07 21:01 | 53.62411 | 9.51237 | 12513 ft | 335 kts | 234° |
| 2026-05-07 21:01 | 53.61032 | 9.48044 | 13275 ft | 339 kts | 234° |
| 2026-05-07 21:02 | 53.59641 | 9.44819 | 14023 ft | 342 kts | 234° |
| 2026-05-07 21:02 | 53.58237 | 9.41565 | 14697 ft | 345 kts | 234° |
| 2026-05-07 21:02 | 53.56819 | 9.38281 | 15379 ft | 348 kts | 234° |
| 2026-05-07 21:02 | 53.55388 | 9.34975 | 16025 ft | 352 kts | 234° |
| 2026-05-07 21:03 | 53.53944 | 9.31632 | 16676 ft | 355 kts | 234° |
| 2026-05-07 21:03 | 53.52485 | 9.28250 | 17335 ft | 359 kts | 234° |
| 2026-05-07 21:03 | 53.51012 | 9.24835 | 17998 ft | 362 kts | 234° |
| 2026-05-07 21:03 | 53.49527 | 9.21396 | 18605 ft | 366 kts | 234° |
| 2026-05-07 21:04 | 53.48025 | 9.17931 | 19153 ft | 369 kts | 234° |
| 2026-05-07 21:04 | 53.46505 | 9.14438 | 19725 ft | 372 kts | 234° |
| 2026-05-07 21:04 | 53.44969 | 9.10917 | 20285 ft | 375 kts | 234° |
| 2026-05-07 21:04 | 53.43424 | 9.07383 | 20824 ft | 377 kts | 234° |
| 2026-05-07 21:05 | 53.41869 | 9.03825 | 21367 ft | 380 kts | 234° |
| 2026-05-07 21:05 | 53.40298 | 9.00227 | 21902 ft | 383 kts | 234° |
| 2026-05-07 21:05 | 53.38722 | 8.96619 | 22448 ft | 385 kts | 234° |
| 2026-05-07 21:05 | 53.37132 | 8.92991 | 22995 ft | 387 kts | 234° |
| 2026-05-07 21:06 | 53.35550 | 8.89331 | 23503 ft | 390 kts | 237° |
| 2026-05-07 21:06 | 53.34254 | 8.85331 | 23944 ft | 393 kts | 247° |
| 2026-05-07 21:06 | 53.33293 | 8.81030 | 24366 ft | 395 kts | 250° |
| 2026-05-07 21:06 | 53.32350 | 8.76703 | 24788 ft | 397 kts | 250° |
| 2026-05-07 21:07 | 53.31392 | 8.72362 | 25194 ft | 400 kts | 249° |
| 2026-05-07 21:07 | 53.30406 | 8.67928 | 25602 ft | 402 kts | 249° |
| 2026-05-07 21:07 | 53.29442 | 8.63599 | 25999 ft | 404 kts | 249° |
| 2026-05-07 21:07 | 53.28453 | 8.59121 | 26413 ft | 406 kts | 249° |
| 2026-05-07 21:08 | 53.27477 | 8.54676 | 26811 ft | 408 kts | 250° |
| 2026-05-07 21:08 | 53.26496 | 8.50206 | 27202 ft | 411 kts | 250° |
| 2026-05-07 21:08 | 53.25556 | 8.45702 | 27589 ft | 413 kts | 251° |
| 2026-05-07 21:08 | 53.24677 | 8.41124 | 27974 ft | 415 kts | 252° |
| 2026-05-07 21:09 | 53.23834 | 8.36501 | 28359 ft | 417 kts | 253° |
| 2026-05-07 21:09 | 53.22999 | 8.31859 | 28729 ft | 419 kts | 253° |
| 2026-05-07 21:09 | 53.22153 | 8.27196 | 29108 ft | 421 kts | 252° |
| 2026-05-07 21:09 | 53.21288 | 8.22521 | 29475 ft | 423 kts | 252° |
| 2026-05-07 21:10 | 53.20400 | 8.17825 | 29844 ft | 425 kts | 252° |
| 2026-05-07 21:10 | 53.19496 | 8.13104 | 30154 ft | 428 kts | 252° |
| 2026-05-07 21:10 | 53.18585 | 8.08369 | 30439 ft | 430 kts | 252° |
| 2026-05-07 21:10 | 53.17677 | 8.03608 | 30715 ft | 432 kts | 252° |
| 2026-05-07 21:11 | 53.16773 | 7.98826 | 30984 ft | 434 kts | 252° |
| 2026-05-07 21:11 | 53.15869 | 7.94016 | 31247 ft | 436 kts | 252° |
| 2026-05-07 21:11 | 53.14044 | 7.84349 | 31866 ft | 437 kts | 252° |
| 2026-05-07 21:12 | 53.13125 | 7.79525 | 32246 ft | 436 kts | 251° |
| 2026-05-07 21:12 | 53.12205 | 7.74721 | 32616 ft | 435 kts | 251° |
| 2026-05-07 21:12 | 53.11282 | 7.69924 | 32985 ft | 435 kts | 251° |
| 2026-05-07 21:12 | 53.10311 | 7.65165 | 33349 ft | 434 kts | 247° |
| 2026-05-07 21:13 | 53.09139 | 7.60544 | 33665 ft | 434 kts | 246° |
| 2026-05-07 21:13 | 53.07959 | 7.55916 | 34005 ft | 434 kts | 246° |
| 2026-05-07 21:13 | 53.06781 | 7.51290 | 34320 ft | 434 kts | 246° |
| 2026-05-07 21:13 | 53.05601 | 7.46672 | 34620 ft | 434 kts | 246° |
| 2026-05-07 21:14 | 53.04803 | 7.43556 | 34815 ft | 433 kts | 246° |
| 2026-05-07 21:14 | 53.03240 | 7.37463 | 35190 ft | 433 kts | 246° |
| 2026-05-07 21:14 | 53.02443 | 7.34360 | 35376 ft | 432 kts | 246° |
| 2026-05-07 21:14 | 53.01265 | 7.29775 | 35694 ft | 431 kts | 246° |
| 2026-05-07 21:15 | 53.00091 | 7.25213 | 35990 ft | 430 kts | 246° |
| 2026-05-07 21:15 | 52.98914 | 7.20650 | 36244 ft | 429 kts | 246° |
| 2026-05-07 21:15 | 52.97737 | 7.16105 | 36489 ft | 429 kts | 246° |
| 2026-05-07 21:15 | 52.96699 | 7.12116 | 36703 ft | 429 kts | 246° |
| 2026-05-07 21:16 | 52.95516 | 7.07575 | 36929 ft | 429 kts | 246° |
| 2026-05-07 21:16 | 52.94333 | 7.03036 | 37148 ft | 429 kts | 246° |
| 2026-05-07 21:16 | 52.93148 | 6.98487 | 37365 ft | 429 kts | 246° |
| 2026-05-07 21:16 | 52.91965 | 6.93951 | 37583 ft | 429 kts | 246° |
| 2026-05-07 21:17 | 52.90779 | 6.89418 | 37801 ft | 429 kts | 246° |
| 2026-05-07 21:17 | 52.89588 | 6.84882 | 38014 ft | 429 kts | 246° |
| 2026-05-07 21:17 | 52.88400 | 6.80357 | 38125 ft | 429 kts | 246° |
| 2026-05-07 21:17 | 52.87208 | 6.75828 | 38131 ft | 428 kts | 246° |
| 2026-05-07 21:18 | 52.84823 | 6.66806 | 38126 ft | 428 kts | 246° |
| 2026-05-07 21:18 | 52.82431 | 6.57808 | 38118 ft | 428 kts | 246° |
| 2026-05-07 21:19 | 52.80035 | 6.48818 | 38122 ft | 427 kts | 246° |
| 2026-05-07 21:19 | 52.77618 | 6.39783 | 38117 ft | 427 kts | 246° |
| 2026-05-07 21:20 | 52.75220 | 6.30831 | 38120 ft | 427 kts | 246° |
| 2026-05-07 21:20 | 52.72809 | 6.21877 | 38118 ft | 427 kts | 245° |
| 2026-05-07 21:21 | 52.70385 | 6.12933 | 38116 ft | 427 kts | 245° |
| 2026-05-07 21:21 | 52.67957 | 6.03994 | 38120 ft | 427 kts | 245° |
| 2026-05-07 21:22 | 52.65526 | 5.95061 | 38120 ft | 427 kts | 245° |
| 2026-05-07 21:22 | 52.63083 | 5.86142 | 38120 ft | 427 kts | 245° |
| 2026-05-07 21:23 | 52.60628 | 5.77234 | 38116 ft | 427 kts | 245° |
| 2026-05-07 21:23 | 52.58170 | 5.68343 | 38118 ft | 427 kts | 245° |
| 2026-05-07 21:24 | 52.55711 | 5.59444 | 38125 ft | 427 kts | 245° |
| 2026-05-07 21:24 | 52.53245 | 5.50561 | 38128 ft | 427 kts | 245° |
| 2026-05-07 21:25 | 52.50767 | 5.41699 | 38139 ft | 427 kts | 245° |
| 2026-05-07 21:25 | 52.48292 | 5.32847 | 38129 ft | 427 kts | 245° |
| 2026-05-07 21:26 | 52.45813 | 5.24009 | 38131 ft | 426 kts | 245° |
| 2026-05-07 21:26 | 52.43324 | 5.15194 | 38120 ft | 426 kts | 245° |
| 2026-05-07 21:27 | 52.40813 | 5.06343 | 38114 ft | 426 kts | 245° |
| 2026-05-07 21:27 | 52.38311 | 4.97558 | 38118 ft | 426 kts | 245° |
| 2026-05-07 21:28 | 52.35804 | 4.88786 | 38129 ft | 425 kts | 245° |